Time;durP1;ratioP1;P1;durP2;ratioP2;P2;SDS_P1;SDS_P2;PMS_P1;PMS_P2;Temp;Humidity;BMP_temperature;BMP_pressure;BME280_temperature;BME280_humidity;BME280_pressure;Samples;Min_cycle;Max_cycle;Signal;HPM_P1;HPM_P2
2023/06/04 00:00:47;;;;;;;4.13;1.20;;;;;;;;;;5009210;28;20026;-75
2023/06/04 00:03:12;;;;;;;2.80;1.10;;;;;;;;;;5017879;28;20455;-75
2023/06/04 00:05:37;;;;;;;2.80;1.27;;;;;;;;;;5009471;28;20041;-75
2023/06/04 00:08:03;;;;;;;3.17;1.17;;;;;;;;;;5085405;23;20037;-80
2023/06/04 00:10:28;;;;;;;3.13;1.10;;;;;;;;;;5033906;28;20089;-79
2023/06/04 00:12:53;;;;;;;4.22;1.25;;;;;;;;;;5034563;28;20028;-79
2023/06/04 00:15:18;;;;;;;2.70;1.00;;;;;;;;;;5031895;28;20032;-79
2023/06/04 00:17:44;;;;;;;4.30;1.08;;;;;;;;;;5035552;28;20045;-79
2023/06/04 00:20:09;;;;;;;2.60;1.10;;;;;;;;;;5026060;28;20180;-79
2023/06/04 00:22:34;;;;;;;2.95;0.85;;;;;;;;;;5036563;28;20033;-79
2023/06/04 00:25:00;;;;;;;3.85;1.20;;;;;;;;;;5032836;28;20420;-79
2023/06/04 00:27:25;;;;;;;2.40;1.05;;;;;;;;;;5031015;28;20026;-79
2023/06/04 00:29:50;;;;;;;3.10;1.10;;;;;;;;;;5036006;28;20427;-78
2023/06/04 00:32:15;;;;;;;2.95;1.17;;;;;;;;;;5027941;28;20499;-79
2023/06/04 00:34:40;;;;;;;4.15;1.10;;;;;;;;;;5034668;28;20033;-78
2023/06/04 00:37:06;;;;;;;2.42;1.00;;;;;;;;;;5011818;28;20057;-79
2023/06/04 00:39:31;;;;;;;4.60;1.20;;;;;;;;;;5036211;28;20029;-79
2023/06/04 00:41:58;;;;;;;2.55;1.00;;;;;;;;;;5031648;28;20055;-80
2023/06/04 00:44:25;;;;;;;1.58;0.80;;;;;;;;;;5012834;28;20094;-79
2023/06/04 00:46:50;;;;;;;3.75;1.10;;;;;;;;;;5035296;28;20033;-79
2023/06/04 00:49:15;;;;;;;3.97;0.95;;;;;;;;;;5035665;28;20033;-79
2023/06/04 00:51:40;;;;;;;2.92;1.10;;;;;;;;;;5035030;28;20038;-79
2023/06/04 00:54:08;;;;;;;4.47;1.27;;;;;;;;;;5034217;28;20100;-79
2023/06/04 00:56:34;;;;;;;2.75;1.20;;;;;;;;;;5034907;28;20393;-79
2023/06/04 00:59:00;;;;;;;2.08;0.90;;;;;;;;;;5029457;28;20037;-79
2023/06/04 01:01:37;;;;;;;3.53;0.80;;;;;;;;;;5029627;28;20030;-79
2023/06/04 01:04:04;;;;;;;4.18;1.10;;;;;;;;;;5031919;28;20038;-79
2023/06/04 01:06:36;;;;;;;2.85;1.00;;;;;;;;;;5034391;28;20128;-78
2023/06/04 01:09:02;;;;;;;2.30;0.87;;;;;;;;;;5035288;28;20120;-78
2023/06/04 01:11:31;;;;;;;2.00;0.90;;;;;;;;;;5035862;28;20083;-78
2023/06/04 01:13:56;;;;;;;3.53;1.55;;;;;;;;;;5032263;28;20026;-78
2023/06/04 01:16:21;;;;;;;3.03;1.17;;;;;;;;;;5035094;28;20048;-79
2023/06/04 01:18:47;;;;;;;3.33;0.90;;;;;;;;;;5035959;28;20025;-78
2023/06/04 01:21:18;;;;;;;4.93;1.50;;;;;;;;;;5032147;28;20650;-78
2023/06/04 01:23:49;;;;;;;2.33;1.00;;;;;;;;;;5026546;28;20033;-78
2023/06/04 01:26:15;;;;;;;3.00;0.90;;;;;;;;;;5014632;28;20435;-78
2023/06/04 01:28:41;;;;;;;2.30;0.90;;;;;;;;;;5033780;28;20066;-78
2023/06/04 01:31:09;;;;;;;2.25;1.10;;;;;;;;;;5022744;28;20072;-79
2023/06/04 01:33:35;;;;;;;4.85;1.33;;;;;;;;;;5018003;28;20026;-78
2023/06/04 01:36:00;;;;;;;4.47;1.25;;;;;;;;;;5033305;28;20048;-78
2023/06/04 01:38:26;;;;;;;2.80;1.02;;;;;;;;;;5033569;28;20040;-78
2023/06/04 01:40:56;;;;;;;2.58;1.00;;;;;;;;;;5035189;28;20029;-79
2023/06/04 01:43:21;;;;;;;3.75;1.27;;;;;;;;;;5026563;28;20526;-79
2023/06/04 01:45:47;;;;;;;5.97;1.20;;;;;;;;;;5033731;28;20037;-79
2023/06/04 01:48:12;;;;;;;2.65;1.38;;;;;;;;;;5030221;28;20033;-78
2023/06/04 01:50:37;;;;;;;4.07;1.02;;;;;;;;;;5035253;28;20029;-78
2023/06/04 01:53:03;;;;;;;3.22;1.02;;;;;;;;;;5026979;28;20037;-78
2023/06/04 01:55:33;;;;;;;4.65;1.10;;;;;;;;;;5030197;28;20079;-79
2023/06/04 01:57:58;;;;;;;4.20;1.30;;;;;;;;;;5036983;28;20056;-79
2023/06/04 02:00:23;;;;;;;3.53;1.17;;;;;;;;;;5033463;28;20033;-79
2023/06/04 02:02:49;;;;;;;3.35;1.00;;;;;;;;;;5036078;28;20618;-79
2023/06/04 02:05:14;;;;;;;4.70;1.33;;;;;;;;;;5036287;28;20555;-78
2023/06/04 02:07:42;;;;;;;4.13;1.10;;;;;;;;;;5031799;28;20041;-79
2023/06/04 02:10:08;;;;;;;3.53;1.17;;;;;;;;;;5035423;28;20020;-79
2023/06/04 02:12:35;;;;;;;5.03;1.40;;;;;;;;;;5037504;28;20040;-79
2023/06/04 02:15:00;;;;;;;3.70;1.60;;;;;;;;;;5031908;28;20025;-79
2023/06/04 02:17:25;;;;;;;3.10;1.00;;;;;;;;;;5032036;28;20029;-79
2023/06/04 02:19:51;;;;;;;4.53;1.85;;;;;;;;;;5030378;28;20037;-78
2023/06/04 02:22:16;;;;;;;3.08;1.05;;;;;;;;;;5017234;28;20116;-79
2023/06/04 02:24:42;;;;;;;5.07;1.52;;;;;;;;;;5035657;28;20098;-79
2023/06/04 02:27:11;;;;;;;5.38;1.20;;;;;;;;;;5034226;28;20037;-79
2023/06/04 02:29:36;;;;;;;3.13;1.00;;;;;;;;;;5035022;28;20068;-79
2023/06/04 02:32:02;;;;;;;3.22;1.77;;;;;;;;;;5032389;28;20048;-79
2023/06/04 02:34:27;;;;;;;3.90;1.15;;;;;;;;;;5034993;28;20029;-79
2023/06/04 02:36:52;;;;;;;4.32;1.23;;;;;;;;;;5031495;28;20029;-79
2023/06/04 02:39:19;;;;;;;5.70;1.50;;;;;;;;;;5034059;28;20048;-79
2023/06/04 02:41:44;;;;;;;3.30;1.20;;;;;;;;;;5028478;28;20036;-78
2023/06/04 02:44:09;;;;;;;3.15;1.15;;;;;;;;;;5033591;28;20029;-79
2023/06/04 02:46:35;;;;;;;4.90;1.38;;;;;;;;;;5033843;28;20025;-78
2023/06/04 02:49:00;;;;;;;4.13;1.60;;;;;;;;;;5033411;28;20396;-78
2023/06/04 02:51:25;;;;;;;4.03;1.40;;;;;;;;;;5034693;28;20108;-78
2023/06/04 02:53:51;;;;;;;2.13;1.08;;;;;;;;;;5035280;28;20504;-78
2023/06/04 02:56:18;;;;;;;4.10;1.33;;;;;;;;;;5016941;28;20057;-79
2023/06/04 02:58:55;;;;;;;3.97;1.35;;;;;;;;;;5024283;28;20394;-79
2023/06/04 03:01:20;;;;;;;4.80;1.40;;;;;;;;;;5013178;28;20142;-78
2023/06/04 03:03:46;;;;;;;3.15;1.40;;;;;;;;;;5032994;28;20515;-78
2023/06/04 03:06:14;;;;;;;4.88;1.52;;;;;;;;;;5030455;28;20069;-78
2023/06/04 03:08:39;;;;;;;3.17;1.58;;;;;;;;;;5032291;28;20075;-78
2023/06/04 03:11:05;;;;;;;3.65;1.20;;;;;;;;;;5033250;28;20597;-79
2023/06/04 03:13:30;;;;;;;3.35;1.40;;;;;;;;;;5034244;28;20052;-78
2023/06/04 03:15:56;;;;;;;3.75;1.17;;;;;;;;;;5034260;28;20028;-78
2023/06/04 03:18:22;;;;;;;6.13;1.50;;;;;;;;;;5032056;28;20028;-78
2023/06/04 03:20:47;;;;;;;4.95;1.90;;;;;;;;;;5032881;28;20056;-78
2023/06/04 03:23:13;;;;;;;3.67;1.45;;;;;;;;;;5032209;28;20029;-79
2023/06/04 03:25:38;;;;;;;3.60;1.40;;;;;;;;;;5033443;28;20116;-77
2023/06/04 03:28:03;;;;;;;2.50;1.23;;;;;;;;;;5034451;28;20057;-78
2023/06/04 03:30:28;;;;;;;3.08;1.15;;;;;;;;;;5033356;28;20105;-78
2023/06/04 03:32:57;;;;;;;3.00;1.30;;;;;;;;;;5033132;28;20607;-78
2023/06/04 03:35:23;;;;;;;4.97;1.73;;;;;;;;;;5033101;28;20087;-78
2023/06/04 03:37:48;;;;;;;2.63;1.25;;;;;;;;;;5033793;28;20033;-78
2023/06/04 03:40:13;;;;;;;3.25;1.23;;;;;;;;;;5032212;28;20036;-78
2023/06/04 03:42:42;;;;;;;3.33;1.55;;;;;;;;;;5015933;28;20091;-78
2023/06/04 03:45:08;;;;;;;2.88;1.27;;;;;;;;;;5016662;28;20037;-79
2023/06/04 03:47:34;;;;;;;3.45;1.30;;;;;;;;;;5037259;28;20411;-77
2023/06/04 03:50:01;;;;;;;3.22;1.40;;;;;;;;;;5026531;28;20028;-78
2023/06/04 03:52:27;;;;;;;4.10;1.52;;;;;;;;;;5026832;28;20108;-79
2023/06/04 03:54:54;;;;;;;3.05;1.10;;;;;;;;;;5031049;28;20017;-78
2023/06/04 03:57:20;;;;;;;5.97;1.60;;;;;;;;;;5029070;28;20033;-78
2023/06/04 03:59:45;;;;;;;4.30;1.48;;;;;;;;;;5031114;28;20508;-78
2023/06/04 04:02:11;;;;;;;4.63;1.60;;;;;;;;;;5033365;28;20060;-78
2023/06/04 04:04:38;;;;;;;4.93;1.58;;;;;;;;;;5020475;28;20025;-78
2023/06/04 04:07:03;;;;;;;2.90;1.30;;;;;;;;;;5037030;28;20060;-78
2023/06/04 04:09:29;;;;;;;3.22;1.20;;;;;;;;;;5020691;28;20017;-78
2023/06/04 04:11:54;;;;;;;3.45;1.30;;;;;;;;;;5036105;28;20079;-77
2023/06/04 04:14:20;;;;;;;4.97;1.60;;;;;;;;;;5036764;28;20169;-78
2023/06/04 04:16:46;;;;;;;3.28;1.30;;;;;;;;;;5035941;28;20101;-79
2023/06/04 04:19:12;;;;;;;2.17;1.30;;;;;;;;;;5037424;28;20033;-78
2023/06/04 04:21:38;;;;;;;4.57;1.45;;;;;;;;;;5036362;28;20103;-78
2023/06/04 04:24:03;;;;;;;3.65;1.25;;;;;;;;;;5036297;28;20435;-78
2023/06/04 04:26:29;;;;;;;3.33;1.30;;;;;;;;;;5035765;28;20553;-77
2023/06/04 04:28:57;;;;;;;4.25;1.38;;;;;;;;;;5034124;28;20563;-78
2023/06/04 04:31:23;;;;;;;3.63;1.48;;;;;;;;;;5033770;28;20030;-77
2023/06/04 04:33:51;;;;;;;2.58;1.02;;;;;;;;;;5036082;28;20021;-78
2023/06/04 04:36:18;;;;;;;3.63;1.50;;;;;;;;;;5036074;28;20094;-78
2023/06/04 04:38:48;;;;;;;2.92;1.40;;;;;;;;;;5035302;28;20116;-78
2023/06/04 04:41:13;;;;;;;5.72;1.60;;;;;;;;;;5037640;28;20026;-78
2023/06/04 04:43:39;;;;;;;3.53;1.23;;;;;;;;;;5037313;28;20111;-78
2023/06/04 04:46:13;;;;;;;5.30;1.42;;;;;;;;;;5032151;28;20064;-79
2023/06/04 04:48:40;;;;;;;3.13;1.38;;;;;;;;;;5039695;28;20026;-79
2023/06/04 04:51:05;;;;;;;4.90;1.63;;;;;;;;;;5035786;28;20025;-78
2023/06/04 04:53:31;;;;;;;2.67;1.30;;;;;;;;;;5035248;28;20025;-79
2023/06/04 04:55:57;;;;;;;3.72;1.65;;;;;;;;;;5035768;28;20021;-77
2023/06/04 04:58:22;;;;;;;3.38;1.42;;;;;;;;;;5034881;28;20034;-78
2023/06/04 05:00:48;;;;;;;4.80;1.45;;;;;;;;;;5030343;28;20545;-78
2023/06/04 05:03:14;;;;;;;4.63;1.67;;;;;;;;;;5013538;28;20117;-77
2023/06/04 05:05:39;;;;;;;2.63;1.30;;;;;;;;;;5034714;28;20029;-78
2023/06/04 05:08:05;;;;;;;2.67;1.25;;;;;;;;;;5035087;28;20080;-78
2023/06/04 05:10:35;;;;;;;4.07;1.50;;;;;;;;;;5035364;28;20056;-78
2023/06/04 05:13:01;;;;;;;4.53;1.25;;;;;;;;;;5018789;28;20021;-79
2023/06/04 05:15:34;;;;;;;4.57;1.70;;;;;;;;;;5030288;28;20091;-76
2023/06/04 05:18:00;;;;;;;3.85;1.50;;;;;;;;;;5034714;28;20479;-78
2023/06/04 05:20:29;;;;;;;3.38;1.40;;;;;;;;;;5034703;28;20040;-78
2023/06/04 05:22:55;;;;;;;3.90;1.40;;;;;;;;;;5035295;28;20034;-79
2023/06/04 05:25:21;;;;;;;3.33;1.40;;;;;;;;;;5036488;28;20021;-79
2023/06/04 05:27:49;;;;;;;5.35;2.10;;;;;;;;;;5034566;28;20017;-78
2023/06/04 05:30:15;;;;;;;9.90;1.98;;;;;;;;;;5036153;28;20088;-79
2023/06/04 05:32:40;;;;;;;3.42;1.60;;;;;;;;;;5035405;28;20440;-79
2023/06/04 05:35:08;;;;;;;4.63;1.38;;;;;;;;;;5036067;28;20017;-79
2023/06/04 05:37:37;;;;;;;2.53;1.25;;;;;;;;;;5036038;28;20125;-78
2023/06/04 05:40:05;;;;;;;5.47;1.73;;;;;;;;;;5034650;28;20029;-78
2023/06/04 05:42:31;;;;;;;4.05;1.45;;;;;;;;;;5030989;28;20030;-80
2023/06/04 05:44:56;;;;;;;3.28;1.50;;;;;;;;;;5034068;28;20026;-79
2023/06/04 05:47:22;;;;;;;5.40;1.50;;;;;;;;;;5034411;28;20764;-80
2023/06/04 05:49:47;;;;;;;5.00;1.48;;;;;;;;;;5034819;28;20048;-78
2023/06/04 05:52:13;;;;;;;4.90;1.70;;;;;;;;;;5034422;28;20025;-79
2023/06/04 05:54:40;;;;;;;3.20;1.50;;;;;;;;;;5032271;28;20025;-79
2023/06/04 05:57:06;;;;;;;5.80;1.88;;;;;;;;;;5030373;28;20045;-79
2023/06/04 05:59:32;;;;;;;4.05;1.70;;;;;;;;;;5033878;28;20037;-78
2023/06/04 06:01:57;;;;;;;3.33;1.38;;;;;;;;;;5035872;28;20028;-79
2023/06/04 06:04:23;;;;;;;5.00;1.50;;;;;;;;;;5031023;28;20026;-78
2023/06/04 06:06:49;;;;;;;4.13;1.63;;;;;;;;;;5033285;28;20029;-78
2023/06/04 06:09:15;;;;;;;4.03;1.63;;;;;;;;;;5033828;28;20408;-78
2023/06/04 06:11:40;;;;;;;3.55;1.42;;;;;;;;;;5034604;28;20117;-79
2023/06/04 06:14:06;;;;;;;3.70;1.55;;;;;;;;;;5031460;28;20025;-79
2023/06/04 06:16:32;;;;;;;4.20;1.80;;;;;;;;;;5032784;28;20507;-78
2023/06/04 06:18:58;;;;;;;5.10;1.50;;;;;;;;;;5033724;28;20433;-78
2023/06/04 06:21:23;;;;;;;5.05;1.65;;;;;;;;;;5033516;28;20033;-78
2023/06/04 06:23:48;;;;;;;4.72;1.67;;;;;;;;;;5034058;28;20021;-79
2023/06/04 06:26:14;;;;;;;4.80;1.48;;;;;;;;;;5033031;28;20543;-79
2023/06/04 06:28:45;;;;;;;3.47;1.27;;;;;;;;;;5033242;28;20028;-78
2023/06/04 06:31:10;;;;;;;3.30;1.50;;;;;;;;;;5014337;28;20030;-79
2023/06/04 06:33:40;;;;;;;3.67;1.20;;;;;;;;;;5034308;28;20036;-79
2023/06/04 06:36:06;;;;;;;3.83;1.45;;;;;;;;;;5033809;28;20018;-79
2023/06/04 06:38:31;;;;;;;3.40;1.45;;;;;;;;;;5034908;28;20539;-79
2023/06/04 06:40:56;;;;;;;4.30;1.40;;;;;;;;;;5017301;28;20026;-78
2023/06/04 06:43:22;;;;;;;2.92;1.20;;;;;;;;;;5035892;28;20037;-79
2023/06/04 06:45:47;;;;;;;5.18;1.60;;;;;;;;;;5033725;28;20025;-79
2023/06/04 06:48:12;;;;;;;6.13;1.58;;;;;;;;;;5034742;28;20071;-79
2023/06/04 06:50:37;;;;;;;2.90;1.38;;;;;;;;;;5035049;28;20018;-78
2023/06/04 06:53:03;;;;;;;3.78;1.85;;;;;;;;;;5033662;28;20017;-80
2023/06/04 06:55:28;;;;;;;4.20;1.17;;;;;;;;;;5034499;28;20135;-79
2023/06/04 06:57:53;;;;;;;4.63;1.60;;;;;;;;;;5032126;28;20137;-79
2023/06/04 07:00:18;;;;;;;4.38;1.50;;;;;;;;;;5033970;28;20029;-78
2023/06/04 07:02:44;;;;;;;3.30;1.52;;;;;;;;;;5031546;28;20030;-78
2023/06/04 07:05:09;;;;;;;4.70;1.65;;;;;;;;;;5034651;28;20079;-79
2023/06/04 07:07:35;;;;;;;3.03;1.25;;;;;;;;;;5030653;28;20026;-80
2023/06/04 07:10:00;;;;;;;6.53;2.20;;;;;;;;;;5033156;28;20049;-79
2023/06/04 07:12:26;;;;;;;3.65;1.50;;;;;;;;;;5032872;28;20029;-79
2023/06/04 07:14:51;;;;;;;6.72;2.03;;;;;;;;;;5034265;28;20031;-80
2023/06/04 07:17:16;;;;;;;4.38;1.52;;;;;;;;;;5033950;28;20026;-78
2023/06/04 07:19:41;;;;;;;4.53;1.40;;;;;;;;;;5034218;28;20495;-80
2023/06/04 07:22:06;;;;;;;4.22;1.45;;;;;;;;;;5032166;28;20041;-80
2023/06/04 07:24:32;;;;;;;3.00;1.38;;;;;;;;;;5035584;28;20072;-80
2023/06/04 07:26:57;;;;;;;3.78;1.27;;;;;;;;;;5035264;28;20038;-80
2023/06/04 07:29:22;;;;;;;2.58;1.38;;;;;;;;;;5036005;28;20021;-80
2023/06/04 07:31:47;;;;;;;2.83;1.50;;;;;;;;;;5033387;28;20021;-80
2023/06/04 07:34:13;;;;;;;3.83;1.33;;;;;;;;;;5035306;28;20380;-80
2023/06/04 07:36:38;;;;;;;3.10;1.30;;;;;;;;;;5033535;28;20498;-81
2023/06/04 07:39:06;;;;;;;6.80;1.63;;;;;;;;;;5036417;28;20040;-81
2023/06/04 07:41:31;;;;;;;2.40;1.20;;;;;;;;;;5036925;28;20056;-81
2023/06/04 07:43:56;;;;;;;3.95;1.17;;;;;;;;;;5035764;28;20480;-79
2023/06/04 07:46:22;;;;;;;3.08;1.13;;;;;;;;;;5033798;28;20034;-80
2023/06/04 07:48:47;;;;;;;3.33;1.20;;;;;;;;;;5034886;28;20033;-80
2023/06/04 07:51:13;;;;;;;4.03;1.25;;;;;;;;;;5035524;28;20020;-81
2023/06/04 07:53:38;;;;;;;3.70;1.20;;;;;;;;;;5037553;28;20049;-80
2023/06/04 07:56:03;;;;;;;5.05;1.23;;;;;;;;;;5034044;28;20053;-80
2023/06/04 07:58:29;;;;;;;2.38;0.95;;;;;;;;;;5035109;28;20030;-80
2023/06/04 08:00:54;;;;;;;3.50;0.95;;;;;;;;;;5031884;28;20037;-81
2023/06/04 08:03:20;;;;;;;4.57;1.00;;;;;;;;;;5014370;28;20061;-81
2023/06/04 08:05:45;;;;;;;2.05;0.75;;;;;;;;;;5034079;28;20036;-80
2023/06/04 08:08:10;;;;;;;2.53;0.80;;;;;;;;;;5034190;28;20017;-81
2023/06/04 08:10:36;;;;;;;2.40;0.80;;;;;;;;;;5032679;28;20400;-81
2023/06/04 08:13:01;;;;;;;2.70;0.70;;;;;;;;;;5033283;28;20034;-79
2023/06/04 08:15:26;;;;;;;2.30;0.80;;;;;;;;;;5031317;28;20037;-80
2023/06/04 08:17:51;;;;;;;2.97;0.90;;;;;;;;;;5034084;28;20037;-80
2023/06/04 08:20:17;;;;;;;1.33;0.63;;;;;;;;;;5034708;28;20423;-81
2023/06/04 08:22:42;;;;;;;2.50;0.95;;;;;;;;;;5034386;28;20037;-80
2023/06/04 08:25:08;;;;;;;1.70;0.55;;;;;;;;;;5034808;28;20028;-80
2023/06/04 08:27:34;;;;;;;3.15;1.00;;;;;;;;;;5032787;28;20029;-80
2023/06/04 08:30:00;;;;;;;2.92;0.80;;;;;;;;;;5034256;28;20044;-81
2023/06/04 08:32:25;;;;;;;1.90;0.70;;;;;;;;;;5038300;28;20029;-80
2023/06/04 08:34:50;;;;;;;3.88;0.93;;;;;;;;;;5036764;28;20017;-81
2023/06/04 08:37:16;;;;;;;2.08;0.70;;;;;;;;;;5034118;28;20030;-81
2023/06/04 08:39:42;;;;;;;3.28;0.80;;;;;;;;;;5034225;28;20033;-81
2023/06/04 08:42:10;;;;;;;1.58;0.80;;;;;;;;;;5033709;28;20028;-80
2023/06/04 08:44:35;;;;;;;2.95;0.70;;;;;;;;;;5031498;28;20021;-81
2023/06/04 08:47:05;;;;;;;3.72;0.90;;;;;;;;;;5033143;28;20598;-80
2023/06/04 08:49:36;;;;;;;5.18;0.80;;;;;;;;;;5036630;28;20033;-80
2023/06/04 08:52:01;;;;;;;2.50;0.70;;;;;;;;;;5036628;28;20026;-80
2023/06/04 08:54:27;;;;;;;2.22;0.85;;;;;;;;;;5031699;28;20036;-80
2023/06/04 08:56:52;;;;;;;2.05;0.75;;;;;;;;;;5029177;28;20034;-79
2023/06/04 08:59:17;;;;;;;1.93;0.80;;;;;;;;;;5018662;28;20084;-81
2023/06/04 09:01:44;;;;;;;1.75;0.85;;;;;;;;;;5021492;28;20279;-81
2023/06/04 09:04:10;;;;;;;2.13;0.73;;;;;;;;;;5040429;28;20040;-81
2023/06/04 09:06:36;;;;;;;2.83;0.80;;;;;;;;;;5040586;28;20112;-80
2023/06/04 09:09:07;;;;;;;5.18;0.90;;;;;;;;;;5035627;28;20603;-81
2023/06/04 09:11:37;;;;;;;3.88;0.80;;;;;;;;;;5019363;28;20029;-80
2023/06/04 09:14:06;;;;;;;1.88;0.75;;;;;;;;;;5033184;28;20033;-81
2023/06/04 09:16:37;;;;;;;1.35;0.60;;;;;;;;;;5032674;28;20494;-80
2023/06/04 09:19:04;;;;;;;3.55;0.77;;;;;;;;;;5034784;28;20519;-81
2023/06/04 09:21:29;;;;;;;1.83;0.60;;;;;;;;;;5018240;28;20080;-80
2023/06/04 09:23:54;;;;;;;1.98;0.80;;;;;;;;;;5035103;28;20033;-81
2023/06/04 09:26:21;;;;;;;2.78;1.23;;;;;;;;;;5035130;28;20042;-81
2023/06/04 09:28:46;;;;;;;3.80;0.70;;;;;;;;;;5039587;28;20068;-81
2023/06/04 09:31:17;;;;;;;1.38;0.70;;;;;;;;;;5038667;28;20022;-80
2023/06/04 09:33:47;;;;;;;2.45;0.70;;;;;;;;;;5035527;28;20029;-80
2023/06/04 09:36:12;;;;;;;1.42;0.60;;;;;;;;;;5036329;28;20041;-80
2023/06/04 09:38:38;;;;;;;1.52;0.60;;;;;;;;;;5037735;28;20091;-80
2023/06/04 09:41:16;;;;;;;1.50;0.75;;;;;;;;;;5032143;28;20021;-80
2023/06/04 09:43:43;;;;;;;1.77;0.63;;;;;;;;;;5035646;28;20476;-80
2023/06/04 09:46:17;;;;;;;3.63;0.70;;;;;;;;;;5036367;28;20090;-80
2023/06/04 09:48:43;;;;;;;2.50;0.93;;;;;;;;;;5032265;28;20124;-79
2023/06/04 09:51:10;;;;;;;1.90;0.73;;;;;;;;;;5035936;28;20060;-80
2023/06/04 09:53:36;;;;;;;1.85;0.68;;;;;;;;;;5035959;28;20029;-80
2023/06/04 09:56:03;;;;;;;4.18;1.10;;;;;;;;;;5036080;28;20044;-80
2023/06/04 09:58:29;;;;;;;1.92;0.73;;;;;;;;;;5037926;28;20044;-80
2023/06/04 10:00:55;;;;;;;1.55;0.55;;;;;;;;;;5031376;28;20038;-81
2023/06/04 10:03:25;;;;;;;1.20;0.57;;;;;;;;;;5035828;28;20138;-80
2023/06/04 10:05:51;;;;;;;2.30;0.70;;;;;;;;;;5026298;28;20041;-80
2023/06/04 10:08:17;;;;;;;3.42;0.80;;;;;;;;;;5036435;28;20412;-81
2023/06/04 10:10:43;;;;;;;1.70;0.90;;;;;;;;;;5037651;28;20034;-81
2023/06/04 10:13:17;;;;;;;2.17;0.80;;;;;;;;;;5036959;28;20029;-81
2023/06/04 10:15:42;;;;;;;4.50;0.93;;;;;;;;;;5037505;28;20053;-80
2023/06/04 10:18:09;;;;;;;2.00;0.75;;;;;;;;;;5038758;28;20071;-80
2023/06/04 10:20:35;;;;;;;2.53;0.70;;;;;;;;;;5037320;28;20053;-81
2023/06/04 10:23:00;;;;;;;1.42;0.57;;;;;;;;;;5035063;28;20476;-79
2023/06/04 10:25:26;;;;;;;3.67;1.00;;;;;;;;;;5037039;28;20057;-80
2023/06/04 10:27:51;;;;;;;2.50;0.82;;;;;;;;;;5036200;28;20021;-81
2023/06/04 10:30:17;;;;;;;2.88;1.02;;;;;;;;;;5037126;28;20395;-81
2023/06/04 10:32:42;;;;;;;2.83;0.98;;;;;;;;;;5039219;28;20021;-81
2023/06/04 10:35:08;;;;;;;3.08;0.88;;;;;;;;;;5038652;28;20041;-80
2023/06/04 10:37:33;;;;;;;2.13;1.00;;;;;;;;;;5031292;28;20038;-81
2023/06/04 10:39:58;;;;;;;2.78;0.88;;;;;;;;;;5036512;28;20029;-80
2023/06/04 10:42:24;;;;;;;3.20;0.90;;;;;;;;;;5041335;28;20034;-82
2023/06/04 10:44:51;;;;;;;1.63;0.80;;;;;;;;;;5037300;28;20036;-81
2023/06/04 10:47:22;;;;;;;1.83;0.65;;;;;;;;;;5042854;28;20025;-81
2023/06/04 10:49:50;;;;;;;1.80;0.90;;;;;;;;;;5035361;28;20044;-81
2023/06/04 10:52:15;;;;;;;2.83;1.08;;;;;;;;;;5024651;28;20094;-81
2023/06/04 10:54:42;;;;;;;1.93;0.80;;;;;;;;;;5044066;28;20045;-81
2023/06/04 10:57:14;;;;;;;2.30;0.90;;;;;;;;;;5032941;28;20776;-80
2023/06/04 10:59:39;;;;;;;1.98;0.80;;;;;;;;;;5038067;28;20040;-81
2023/06/04 11:02:05;;;;;;;4.22;0.93;;;;;;;;;;5038952;28;20458;-80
2023/06/04 11:04:31;;;;;;;2.40;0.80;;;;;;;;;;5039718;28;20029;-81
2023/06/04 11:07:03;;;;;;;2.63;0.90;;;;;;;;;;5040136;28;20057;-80
2023/06/04 11:09:28;;;;;;;2.90;0.85;;;;;;;;;;5039791;28;20396;-80
2023/06/04 11:11:58;;;;;;;3.60;1.10;;;;;;;;;;5040983;28;20022;-81
2023/06/04 11:14:23;;;;;;;2.78;0.95;;;;;;;;;;5035330;28;20036;-81
2023/06/04 11:16:48;;;;;;;2.22;0.98;;;;;;;;;;5039522;28;20021;-81
2023/06/04 11:19:14;;;;;;;3.70;1.00;;;;;;;;;;5039882;28;20089;-80
2023/06/04 11:21:39;;;;;;;1.90;0.80;;;;;;;;;;5039867;28;20341;-80
2023/06/04 11:24:04;;;;;;;2.50;0.70;;;;;;;;;;5040319;28;20053;-80
2023/06/04 11:26:31;;;;;;;1.77;0.90;;;;;;;;;;5040518;28;20084;-80
2023/06/04 11:28:56;;;;;;;1.88;1.00;;;;;;;;;;5039782;28;20496;-81
2023/06/04 11:31:22;;;;;;;3.05;1.27;;;;;;;;;;5038693;28;20025;-79
2023/06/04 11:33:48;;;;;;;2.65;0.70;;;;;;;;;;5042705;28;20029;-80
2023/06/04 11:36:29;;;;;;;2.35;0.90;;;;;;;;;;5043245;28;20026;-79
2023/06/04 11:38:55;;;;;;;1.50;0.90;;;;;;;;;;5041629;28;20040;-80
2023/06/04 11:41:20;;;;;;;2.50;0.88;;;;;;;;;;5043578;28;20278;-80
2023/06/04 11:43:48;;;;;;;1.90;0.93;;;;;;;;;;5042466;28;20112;-79
2023/06/04 11:46:14;;;;;;;2.80;1.08;;;;;;;;;;5039864;28;20041;-79
2023/06/04 11:48:39;;;;;;;2.05;0.90;;;;;;;;;;5042932;28;20037;-79
2023/06/04 11:51:06;;;;;;;3.38;0.90;;;;;;;;;;5043033;28;20017;-79
2023/06/04 11:53:31;;;;;;;3.25;0.90;;;;;;;;;;5043282;28;20025;-80
2023/06/04 11:55:57;;;;;;;3.90;1.40;;;;;;;;;;5044764;28;20077;-80
2023/06/04 11:58:23;;;;;;;3.13;1.05;;;;;;;;;;5041627;28;20037;-79
2023/06/04 12:00:49;;;;;;;3.95;1.13;;;;;;;;;;5043479;28;20025;-79
2023/06/04 12:03:14;;;;;;;3.10;1.08;;;;;;;;;;5044656;28;20053;-80
2023/06/04 12:05:39;;;;;;;2.33;1.07;;;;;;;;;;5044143;28;20022;-79
2023/06/04 12:08:11;;;;;;;2.70;1.30;;;;;;;;;;5043201;28;20317;-79
2023/06/04 12:10:42;;;;;;;2.13;1.08;;;;;;;;;;5039370;28;20044;-79
2023/06/04 12:13:09;;;;;;;2.08;1.10;;;;;;;;;;5033863;28;20022;-78
2023/06/04 12:15:34;;;;;;;4.50;1.30;;;;;;;;;;5034639;28;20510;-79
2023/06/04 12:17:59;;;;;;;3.20;1.17;;;;;;;;;;5032686;28;20057;-79
2023/06/04 12:20:38;;;;;;;1.98;1.05;;;;;;;;;;5033148;28;20107;-79
2023/06/04 12:23:04;;;;;;;1.95;1.10;;;;;;;;;;5029907;28;20374;-80
2023/06/04 12:25:30;;;;;;;1.60;1.10;;;;;;;;;;5042003;28;20041;-81
2023/06/04 12:27:56;;;;;;;1.88;1.10;;;;;;;;;;5043009;28;20171;-81
2023/06/04 12:30:22;;;;;;;1.60;0.85;;;;;;;;;;5042185;28;20037;-81
2023/06/04 12:32:47;;;;;;;3.42;0.95;;;;;;;;;;5042350;28;20036;-81
2023/06/04 12:35:14;;;;;;;2.72;1.48;;;;;;;;;;5036832;28;20409;-81
2023/06/04 12:37:39;;;;;;;4.18;1.45;;;;;;;;;;5044117;28;20038;-81
2023/06/04 12:40:06;;;;;;;4.03;1.38;;;;;;;;;;5043033;28;20034;-81
2023/06/04 12:42:31;;;;;;;3.00;1.35;;;;;;;;;;5045011;28;20040;-81
2023/06/04 12:44:56;;;;;;;1.77;1.00;;;;;;;;;;5045881;28;20026;-81
2023/06/04 12:47:21;;;;;;;3.23;1.30;;;;;;;;;;5045260;28;20025;-81
2023/06/04 12:49:47;;;;;;;2.45;1.40;;;;;;;;;;5045858;28;20028;-81
2023/06/04 12:52:14;;;;;;;5.13;1.40;;;;;;;;;;5047629;28;20030;-82
2023/06/04 12:54:39;;;;;;;3.97;1.33;;;;;;;;;;5047226;28;20955;-81
2023/06/04 12:57:05;;;;;;;4.05;1.55;;;;;;;;;;5045505;28;20040;-81
2023/06/04 12:59:30;;;;;;;2.17;1.30;;;;;;;;;;5042679;28;20029;-82
2023/06/04 13:01:56;;;;;;;2.28;1.17;;;;;;;;;;5046388;28;20089;-81
2023/06/04 13:04:23;;;;;;;3.63;1.45;;;;;;;;;;5038796;28;20026;-81
2023/06/04 13:06:48;;;;;;;2.70;1.00;;;;;;;;;;5041585;28;20085;-81
2023/06/04 13:09:14;;;;;;;2.80;1.40;;;;;;;;;;5039937;28;20118;-81
2023/06/04 13:11:40;;;;;;;2.23;1.30;;;;;;;;;;5038750;28;20056;-81
2023/06/04 13:14:05;;;;;;;3.00;1.30;;;;;;;;;;5040329;28;20764;-82
2023/06/04 13:16:30;;;;;;;5.75;1.55;;;;;;;;;;5041257;28;20049;-81
2023/06/04 13:18:56;;;;;;;2.35;1.33;;;;;;;;;;5035726;28;20037;-81
2023/06/04 13:21:21;;;;;;;1.83;1.20;;;;;;;;;;5040338;28;20029;-81
2023/06/04 13:23:46;;;;;;;3.95;1.52;;;;;;;;;;5041289;28;20051;-81
2023/06/04 13:26:11;;;;;;;2.65;1.33;;;;;;;;;;5041710;28;20063;-81
2023/06/04 13:28:37;;;;;;;3.13;1.50;;;;;;;;;;5041065;28;20029;-81
2023/06/04 13:31:02;;;;;;;2.38;1.27;;;;;;;;;;5041157;28;20034;-81
2023/06/04 13:33:27;;;;;;;2.97;1.67;;;;;;;;;;5040348;28;20054;-81
2023/06/04 13:35:53;;;;;;;2.07;1.37;;;;;;;;;;5040089;28;20762;-81
2023/06/04 13:38:18;;;;;;;3.73;1.63;;;;;;;;;;5035340;28;20292;-81
2023/06/04 13:40:44;;;;;;;2.70;1.77;;;;;;;;;;5031212;28;20281;-81
2023/06/04 13:43:09;;;;;;;2.65;1.50;;;;;;;;;;5040460;28;20055;-81
2023/06/04 13:45:35;;;;;;;2.10;1.52;;;;;;;;;;5035327;28;20078;-81
2023/06/04 13:48:04;;;;;;;2.60;1.70;;;;;;;;;;5038326;28;20030;-82
2023/06/04 13:50:30;;;;;;;4.32;1.60;;;;;;;;;;5038613;28;20038;-82
2023/06/04 13:52:55;;;;;;;4.93;2.50;;;;;;;;;;5038673;28;20102;-81
2023/06/04 13:55:20;;;;;;;2.30;1.40;;;;;;;;;;5037094;28;20112;-81
2023/06/04 13:57:45;;;;;;;2.90;1.93;;;;;;;;;;5038998;28;20297;-81
2023/06/04 14:00:13;;;;;;;3.73;1.63;;;;;;;;;;5036590;28;20447;-81
2023/06/04 14:02:38;;;;;;;3.20;1.63;;;;;;;;;;5038752;28;20507;-81
2023/06/04 14:05:04;;;;;;;7.93;2.00;;;;;;;;;;5036943;28;20033;-81
2023/06/04 14:07:29;;;;;;;3.47;2.20;;;;;;;;;;5037047;28;20029;-81
2023/06/04 14:09:55;;;;;;;6.07;1.70;;;;;;;;;;5037387;28;20488;-81
2023/06/04 14:12:21;;;;;;;4.32;1.85;;;;;;;;;;5038026;28;20310;-81
2023/06/04 14:14:46;;;;;;;2.63;1.45;;;;;;;;;;5036394;28;20052;-81
2023/06/04 14:17:11;;;;;;;3.97;1.80;;;;;;;;;;5035691;28;20037;-80
2023/06/04 14:19:38;;;;;;;2.97;1.83;;;;;;;;;;5037045;28;20022;-81
2023/06/04 14:22:03;;;;;;;1.98;1.70;;;;;;;;;;5036958;28;20033;-81
2023/06/04 14:24:30;;;;;;;4.30;1.90;;;;;;;;;;5037506;28;20025;-81
2023/06/04 14:26:55;;;;;;;3.15;1.63;;;;;;;;;;5036702;28;20017;-81
2023/06/04 14:29:20;;;;;;;3.33;1.70;;;;;;;;;;5036148;28;20025;-81
2023/06/04 14:31:45;;;;;;;2.70;1.77;;;;;;;;;;5039125;28;20068;-81
2023/06/04 14:34:11;;;;;;;3.70;1.57;;;;;;;;;;5037551;28;20041;-81
2023/06/04 14:36:36;;;;;;;2.30;1.58;;;;;;;;;;5038051;28;20026;-81